createdAt,value
2018-05-01T00:01:31.136Z,1.40
2018-05-01T00:03:33.714Z,1.20
2018-05-01T00:05:36.300Z,1.23
2018-05-01T00:07:39.712Z,1.20
2018-05-01T00:09:42.359Z,1.30
2018-05-01T00:11:45.009Z,1.40
2018-05-01T00:13:47.594Z,1.00
2018-05-01T00:15:50.170Z,1.40
2018-05-01T00:17:52.772Z,1.10
2018-05-01T00:19:56.111Z,1.40
2018-05-01T00:21:58.708Z,1.27
2018-05-01T00:24:01.328Z,1.17
2018-05-01T00:26:03.902Z,1.20
2018-05-01T00:28:06.533Z,1.43
2018-05-01T00:30:09.120Z,1.20
2018-05-01T00:32:11.728Z,1.87
2018-05-01T00:34:14.308Z,1.40
2018-05-01T00:36:16.892Z,1.40
2018-05-01T00:38:19.559Z,1.30
2018-05-01T00:40:22.131Z,1.40
2018-05-01T00:44:34.577Z,1.40
2018-05-01T00:46:37.162Z,1.57
2018-05-01T00:48:39.767Z,1.50
2018-05-01T00:50:43.204Z,1.50
2018-05-01T00:52:45.808Z,1.47
2018-05-01T00:54:48.397Z,1.53
2018-05-01T00:56:51.748Z,1.80
2018-05-01T00:58:54.344Z,2.00
2018-05-01T01:00:56.934Z,1.80
2018-05-01T01:02:59.541Z,1.60
2018-05-01T01:05:02.124Z,1.63
2018-05-01T01:07:04.728Z,1.70
2018-05-01T01:09:07.324Z,1.70
2018-05-01T01:11:09.927Z,1.73
2018-05-01T01:13:13.316Z,1.67
2018-05-01T01:15:16.686Z,1.63
2018-05-01T01:17:19.257Z,1.70
2018-05-01T01:19:21.860Z,1.77
2018-05-01T01:21:25.209Z,1.63
2018-05-01T01:23:27.807Z,1.60
2018-05-01T01:25:30.389Z,1.87
2018-05-01T01:27:33.766Z,1.73
2018-05-01T01:29:36.384Z,1.80
2018-05-01T01:31:39.044Z,1.70
2018-05-01T01:33:42.412Z,1.60
2018-05-01T01:35:44.485Z,1.63
2018-05-01T01:37:47.335Z,1.90
2018-05-01T01:39:49.408Z,1.87
2018-05-01T01:41:51.473Z,2.00
2018-05-01T01:43:54.308Z,2.00
2018-05-01T01:45:56.370Z,1.80
2018-05-01T01:47:58.436Z,1.90
2018-05-01T01:50:00.512Z,2.00
2018-05-01T01:52:02.588Z,1.60
2018-05-01T01:54:04.912Z,1.80
2018-05-01T01:56:06.970Z,2.10
2018-05-01T01:58:09.035Z,1.60
2018-05-01T02:00:11.111Z,1.83
2018-05-01T02:02:13.166Z,1.60
2018-05-01T02:04:15.367Z,1.70
2018-05-01T02:06:17.430Z,1.63
2018-05-01T02:08:19.482Z,1.77
2018-05-01T02:10:21.547Z,1.60
2018-05-01T02:12:23.629Z,1.60
2018-05-01T02:14:25.711Z,1.50
2018-05-01T02:16:27.795Z,1.47
2018-05-01T02:18:29.879Z,1.57
2018-05-01T02:20:31.960Z,1.70
2018-05-01T02:22:34.023Z,1.67
2018-05-01T02:24:36.120Z,1.60
2018-05-01T02:26:39.263Z,1.40
2018-05-01T02:28:41.380Z,1.50
2018-05-01T02:30:43.440Z,1.77
2018-05-01T02:32:50.465Z,1.50
2018-05-01T02:34:52.551Z,1.60
2018-05-01T02:36:54.607Z,1.40
2018-05-01T02:38:56.690Z,1.77
2018-05-01T02:40:59.520Z,1.63
2018-05-01T02:43:01.621Z,1.40
2018-05-01T02:45:03.708Z,1.67
2018-05-01T02:47:05.787Z,1.20
2018-05-01T02:49:07.863Z,1.60
2018-05-01T02:51:09.921Z,1.77
2018-05-01T02:53:12.026Z,1.30
2018-05-01T02:55:14.125Z,1.50
2018-05-01T02:57:16.191Z,1.10
2018-05-01T02:59:18.276Z,1.50
2018-05-01T03:01:20.339Z,1.30
2018-05-01T03:03:22.403Z,1.37
2018-05-01T03:05:24.481Z,1.37
2018-05-01T03:07:26.604Z,1.33
2018-05-01T03:09:28.688Z,1.20
2018-05-01T03:11:30.742Z,1.47
2018-05-01T03:13:32.816Z,1.20
2018-05-01T03:15:34.898Z,1.30
2018-05-01T03:17:36.961Z,1.37
2018-05-01T03:19:39.052Z,1.33
2018-05-01T03:21:41.876Z,1.40
2018-05-01T03:23:43.928Z,1.20
2018-05-01T03:25:46.000Z,1.40
2018-05-01T03:27:48.815Z,1.70
2018-05-01T03:29:50.902Z,1.53
2018-05-01T03:31:53.719Z,1.60
2018-05-01T03:33:55.783Z,1.40
2018-05-01T03:35:57.863Z,1.40
2018-05-01T03:37:59.926Z,1.40
2018-05-01T03:40:02.003Z,1.30
2018-05-01T03:42:04.837Z,1.50
2018-05-01T03:44:06.892Z,1.33
2018-05-01T03:46:08.963Z,1.30
2018-05-01T03:48:11.022Z,1.50
2018-05-01T03:50:13.092Z,1.80
2018-05-01T03:52:15.278Z,1.57
2018-05-01T03:54:17.355Z,1.73
2018-05-01T03:56:19.432Z,1.73
2018-05-01T03:58:22.279Z,1.87
2018-05-01T04:00:25.139Z,1.40
2018-05-01T04:02:27.200Z,1.63
2018-05-01T04:04:29.256Z,1.23
2018-05-01T04:06:31.332Z,1.20
2018-05-01T04:08:33.407Z,1.57
2018-05-01T04:10:35.484Z,1.50
2018-05-01T04:12:38.335Z,1.40
2018-05-01T04:14:40.463Z,1.57
2018-05-01T04:16:42.555Z,1.50
2018-05-01T04:18:44.616Z,1.30
2018-05-01T04:20:46.689Z,1.20
2018-05-01T04:22:49.510Z,1.50
2018-05-01T04:24:52.338Z,1.40
2018-05-01T04:26:54.410Z,1.87
2018-05-01T04:28:57.235Z,1.57
2018-05-01T04:31:00.108Z,1.37
2018-05-01T04:33:02.927Z,1.40
2018-05-01T04:35:04.981Z,1.37
2018-05-01T04:37:07.066Z,1.17
2018-05-01T04:39:09.151Z,1.50
2018-05-01T04:41:11.216Z,1.40
2018-05-01T04:43:13.283Z,1.30
2018-05-01T04:45:15.427Z,1.20
2018-05-01T04:47:17.580Z,1.17
2018-05-01T04:49:19.641Z,1.30
2018-05-01T04:51:21.715Z,1.00
2018-05-01T04:53:23.775Z,1.13
2018-05-01T04:55:25.858Z,1.20
2018-05-01T04:57:27.953Z,1.13
2018-05-01T04:59:30.016Z,1.17
2018-05-01T05:01:32.108Z,1.10
2018-05-01T05:03:34.176Z,0.90
2018-05-01T05:05:36.995Z,1.00
2018-05-01T05:07:39.828Z,1.23
2018-05-01T05:09:41.885Z,0.90
2018-05-01T05:11:43.968Z,1.00
2018-05-01T05:13:46.025Z,1.10
2018-05-01T05:15:48.079Z,1.30
2018-05-01T05:17:50.224Z,1.07
2018-05-01T05:19:52.285Z,1.10
2018-05-01T05:21:54.355Z,0.97
2018-05-01T05:23:56.416Z,1.10
2018-05-01T05:25:58.470Z,1.00
2018-05-01T05:28:00.561Z,1.00
2018-05-01T05:30:02.621Z,1.03
2018-05-01T05:32:04.695Z,1.30
2018-05-01T05:34:06.756Z,1.20
2018-05-01T05:36:08.811Z,1.10
2018-05-01T05:38:10.888Z,1.23
2018-05-01T05:40:12.951Z,1.57
2018-05-01T05:42:15.057Z,1.20
2018-05-01T05:44:17.121Z,1.27
2018-05-01T05:46:19.243Z,1.10
2018-05-01T05:48:21.321Z,1.10
2018-05-01T05:50:24.148Z,0.77
2018-05-01T05:52:26.229Z,1.10
2018-05-01T05:54:28.298Z,0.87
2018-05-01T05:56:30.447Z,1.00
2018-05-01T05:58:32.550Z,0.90
2018-05-01T06:00:35.363Z,1.10
2018-05-01T06:02:37.432Z,1.00
2018-05-01T06:04:39.495Z,1.00
2018-05-01T06:06:41.584Z,1.10
2018-05-01T06:08:43.665Z,1.10
2018-05-01T06:10:45.761Z,0.90
2018-05-01T06:12:47.843Z,1.10
2018-05-01T06:14:49.895Z,1.10
2018-05-01T06:16:51.971Z,1.03
2018-05-01T06:18:54.840Z,1.30
2018-05-01T06:20:56.895Z,1.30
2018-05-01T06:22:58.979Z,1.10
2018-05-01T06:25:01.045Z,1.03
2018-05-01T06:27:03.103Z,0.90
2018-05-01T06:29:05.944Z,1.13
2018-05-01T06:31:08.080Z,0.90
2018-05-01T06:33:10.089Z,1.17
2018-05-01T06:35:12.150Z,1.30
2018-05-01T06:37:14.227Z,1.13
2018-05-01T06:39:16.304Z,1.20
2018-05-01T06:41:18.360Z,1.00
2018-05-01T06:43:20.516Z,0.93
2018-05-01T06:45:22.569Z,1.10
2018-05-01T06:47:24.628Z,1.00
2018-05-01T06:49:26.718Z,1.37
2018-05-01T06:51:28.783Z,1.10
2018-05-01T06:53:30.903Z,1.40
2018-05-01T06:55:32.960Z,1.20
2018-05-01T06:57:35.027Z,1.40
2018-05-01T06:59:37.284Z,1.63
2018-05-01T07:01:39.404Z,1.40
2018-05-01T07:03:41.487Z,1.50
2018-05-01T07:05:44.323Z,1.43
2018-05-01T07:07:46.385Z,1.60
2018-05-01T07:09:49.252Z,1.70
2018-05-01T07:11:51.307Z,1.60
2018-05-01T07:13:53.435Z,1.57
2018-05-01T07:15:56.324Z,1.80
2018-05-01T07:17:58.332Z,1.90
2018-05-01T07:20:00.710Z,1.60
2018-05-01T07:22:02.787Z,1.60
2018-05-01T07:24:04.895Z,1.90
2018-05-01T07:26:06.966Z,1.60
2018-05-01T07:28:09.165Z,1.60
2018-05-01T07:30:11.241Z,1.40
2018-05-01T07:32:13.307Z,1.40
2018-05-01T07:34:15.392Z,1.60
2018-05-01T07:36:18.220Z,1.50
2018-05-01T07:38:20.307Z,1.47
2018-05-01T07:40:22.372Z,1.60
2018-05-01T07:42:24.430Z,1.60
2018-05-01T07:44:26.517Z,1.73
2018-05-01T07:46:28.603Z,1.87
2018-05-01T07:48:30.685Z,1.40
2018-05-01T07:50:32.765Z,1.80
2018-05-01T07:52:34.843Z,1.90
2018-05-01T07:54:36.953Z,1.60
2018-05-01T07:56:39.028Z,1.80
2018-05-01T07:58:41.103Z,1.73
2018-05-01T08:00:43.166Z,1.63
2018-05-01T08:02:45.232Z,1.70
2018-05-01T08:04:47.320Z,1.90
2018-05-01T08:06:49.546Z,2.10
2018-05-01T08:08:51.636Z,2.10
2018-05-01T08:10:53.727Z,2.30
2018-05-01T08:12:56.560Z,2.10
2018-05-01T08:14:58.657Z,2.00
2018-05-01T08:17:02.487Z,2.10
2018-05-01T08:19:04.813Z,2.10
2018-05-01T08:21:06.890Z,2.23
2018-05-01T08:23:09.720Z,2.37
2018-05-01T08:25:11.799Z,2.30
2018-05-01T08:27:14.594Z,1.90
2018-05-01T08:29:16.775Z,2.30
2018-05-01T08:31:19.636Z,2.23
2018-05-01T08:33:21.692Z,1.80
2018-05-01T08:35:23.777Z,1.97
2018-05-01T08:37:26.645Z,2.00
2018-05-01T08:39:28.724Z,1.83
2018-05-01T08:41:31.588Z,1.83
2018-05-01T08:43:33.683Z,1.83
2018-05-01T08:45:35.768Z,1.53
2018-05-01T08:47:37.827Z,1.67
2018-05-01T08:49:39.917Z,1.57
2018-05-01T08:51:41.986Z,1.70
2018-05-01T08:53:44.160Z,2.00
2018-05-01T08:55:46.240Z,1.93
2018-05-01T08:57:49.072Z,1.80
2018-05-01T08:59:51.161Z,2.93
2018-05-01T09:01:53.265Z,2.10
2018-05-01T09:03:55.336Z,2.10
2018-05-01T09:05:57.437Z,1.70
2018-05-01T09:07:59.531Z,1.73
2018-05-01T09:10:02.401Z,1.97
2018-05-01T09:12:04.512Z,1.73
2018-05-01T09:14:06.595Z,1.60
2018-05-01T09:16:08.732Z,1.80
2018-05-01T09:18:10.929Z,1.67
2018-05-01T09:20:12.910Z,2.20
2018-05-01T09:22:15.851Z,2.00
2018-05-01T09:24:17.914Z,1.47
2018-05-01T09:26:20.001Z,1.73
2018-05-01T09:28:22.076Z,1.57
2018-05-01T09:30:24.178Z,1.43
2018-05-01T09:32:26.239Z,4.77
2018-05-01T09:34:28.361Z,4.37
2018-05-01T09:36:30.451Z,2.00
2018-05-01T09:38:33.291Z,9.97
2018-05-01T09:40:35.388Z,21.97
2018-05-01T09:42:38.261Z,5.60
2018-05-01T09:44:41.100Z,2.80
2018-05-01T09:46:43.171Z,1.40
2018-05-01T09:48:45.232Z,1.60
2018-05-01T09:50:47.318Z,1.50
2018-05-01T09:52:49.904Z,1.70
2018-05-01T09:54:53.289Z,1.57
2018-05-01T09:56:55.940Z,1.50
2018-05-01T09:58:58.536Z,4.67
2018-05-01T10:01:01.160Z,1.50
2018-05-01T10:03:03.804Z,1.20
2018-05-01T10:05:07.377Z,1.50
2018-05-01T10:07:09.985Z,1.40
2018-05-01T10:09:12.581Z,1.23
2018-05-01T10:11:15.224Z,1.53
2018-05-01T10:13:18.589Z,1.43
2018-05-01T10:15:21.967Z,1.30
2018-05-01T10:17:24.631Z,1.33
2018-05-01T10:19:27.232Z,1.37
2018-05-01T10:21:29.843Z,1.50
2018-05-01T10:23:32.490Z,3.23
2018-05-01T10:25:35.079Z,1.50
2018-05-01T10:27:38.675Z,1.43
2018-05-01T10:29:42.054Z,2.90
2018-05-01T10:31:44.664Z,1.90
2018-05-01T10:33:47.278Z,1.83
2018-05-01T10:35:49.872Z,1.63
2018-05-01T10:37:52.615Z,2.03
2018-05-01T10:39:55.272Z,1.53
2018-05-01T10:41:57.869Z,2.00
2018-05-01T10:44:00.541Z,1.90
2018-05-01T10:46:03.866Z,1.97
2018-05-01T10:48:06.499Z,1.80
2018-05-01T10:50:09.120Z,1.77
2018-05-01T10:52:11.732Z,1.73
2018-05-01T10:54:14.328Z,2.00
2018-05-01T10:56:16.963Z,1.63
2018-05-01T10:58:20.345Z,1.50
2018-05-01T11:00:23.760Z,2.00
2018-05-01T11:02:26.385Z,1.53
2018-05-01T11:04:28.980Z,1.70
2018-05-01T11:06:31.621Z,1.67
2018-05-01T11:08:34.291Z,1.53
2018-05-01T11:10:37.639Z,1.80
2018-05-01T11:12:40.265Z,1.80
2018-05-01T11:14:42.868Z,1.80
2018-05-01T11:16:45.809Z,1.63
2018-05-01T11:18:48.405Z,1.83
2018-05-01T11:20:51.772Z,1.60
2018-05-01T11:22:54.388Z,1.70
2018-05-01T11:24:57.016Z,1.60
2018-05-01T11:26:59.656Z,1.40
2018-05-01T11:29:03.028Z,1.40
2018-05-01T11:31:05.630Z,1.60
2018-05-01T11:33:08.999Z,1.77
2018-05-01T11:35:11.603Z,1.50
2018-05-01T11:37:14.246Z,1.60
2018-05-01T11:39:16.863Z,1.70
2018-05-01T11:41:19.461Z,1.50
2018-05-01T11:43:22.204Z,1.43
2018-05-01T11:45:24.795Z,1.80
2018-05-01T11:47:27.438Z,1.80
2018-05-01T11:49:30.786Z,1.60
2018-05-01T11:51:34.159Z,1.60
2018-05-01T11:53:36.812Z,1.47
2018-05-01T11:55:39.394Z,1.70
2018-05-01T11:57:42.090Z,1.70
2018-05-01T11:59:44.707Z,1.47
2018-05-01T12:01:47.340Z,1.80
2018-05-01T12:03:50.821Z,1.53
2018-05-01T12:05:53.429Z,2.00
2018-05-01T12:07:56.048Z,1.60
2018-05-01T12:09:59.427Z,1.60
2018-05-01T12:12:02.784Z,1.87
2018-05-01T12:14:05.451Z,1.80
2018-05-01T12:16:08.085Z,1.80
2018-05-01T12:18:11.503Z,1.80
2018-05-01T12:20:14.094Z,2.13
2018-05-01T12:22:16.714Z,2.37
2018-05-01T12:24:19.376Z,2.20
2018-05-01T12:26:22.010Z,1.77
2018-05-01T12:28:24.637Z,1.50
2018-05-01T12:30:27.235Z,2.10
2018-05-01T12:32:29.827Z,1.80
2018-05-01T12:34:32.467Z,1.70
2018-05-01T12:36:35.923Z,1.80
2018-05-01T12:38:38.447Z,1.70
2018-05-01T12:40:41.046Z,1.80
2018-05-01T12:42:43.651Z,1.50
2018-05-01T12:44:46.280Z,1.77
2018-05-01T12:46:48.988Z,1.80
2018-05-01T12:48:51.596Z,1.80
2018-05-01T12:50:54.191Z,1.90
2018-05-01T12:52:57.548Z,1.77
2018-05-01T12:55:00.156Z,1.90
2018-05-01T12:57:03.527Z,1.80
2018-05-01T12:59:06.160Z,3.40
2018-05-01T13:01:08.746Z,3.40
2018-05-01T13:03:11.332Z,1.90
2018-05-01T13:05:14.080Z,1.87
2018-05-01T13:07:16.663Z,1.83
2018-05-01T13:09:19.283Z,4.90
2018-05-01T13:11:22.664Z,3.43
2018-05-01T13:13:25.268Z,2.90
2018-05-01T13:15:28.647Z,3.40
2018-05-01T13:17:32.015Z,1.77
2018-05-01T13:19:34.628Z,2.40
2018-05-01T13:21:37.993Z,1.90
2018-05-01T13:23:40.584Z,1.60
2018-05-01T13:25:43.969Z,1.70
2018-05-01T13:27:47.323Z,1.70
2018-05-01T13:29:49.936Z,2.10
2018-05-01T13:31:53.345Z,1.83
2018-05-01T13:33:56.711Z,1.60
2018-05-01T13:35:59.407Z,1.80
2018-05-01T13:38:03.380Z,1.90
2018-05-01T13:40:06.021Z,1.50
2018-05-01T13:42:08.695Z,1.70
2018-05-01T13:44:11.273Z,1.87
2018-05-01T13:46:13.871Z,1.70
2018-05-01T13:48:17.240Z,1.73
2018-05-01T13:50:19.824Z,1.70
2018-05-01T13:52:22.399Z,1.67
2018-05-01T13:54:25.062Z,1.30
2018-05-01T13:56:27.627Z,1.50
2018-05-01T13:58:30.239Z,1.50
2018-05-01T14:00:32.848Z,1.63
2018-05-01T14:02:36.199Z,2.40
2018-05-01T14:04:38.841Z,1.43
2018-05-01T14:06:41.428Z,1.53
2018-05-01T14:08:44.042Z,1.70
2018-05-01T14:10:46.652Z,1.50
2018-05-01T14:12:49.295Z,1.77
2018-05-01T14:14:51.904Z,2.03
2018-05-01T14:16:54.495Z,1.70
2018-05-01T14:18:57.093Z,1.70
2018-05-01T14:20:59.729Z,1.50
2018-05-01T14:23:02.325Z,1.50
2018-05-01T14:25:04.937Z,2.00
2018-05-01T14:27:07.544Z,1.70
2018-05-01T14:29:10.932Z,1.60
2018-05-01T14:31:14.348Z,1.70
2018-05-01T14:33:16.963Z,2.17
2018-05-01T14:35:19.580Z,1.77
2018-05-01T14:37:22.944Z,1.80
2018-05-01T14:39:25.557Z,1.57
2018-05-01T14:41:28.908Z,1.57
2018-05-01T14:43:31.507Z,1.80
2018-05-01T14:45:34.900Z,1.40
2018-05-01T14:47:38.262Z,1.57
2018-05-01T14:49:40.851Z,1.40
2018-05-01T14:51:43.463Z,1.50
2018-05-01T14:53:46.076Z,1.60
2018-05-01T14:55:49.876Z,1.80
2018-05-01T14:57:53.235Z,1.83
2018-05-01T14:59:55.819Z,2.47
2018-05-01T15:01:58.436Z,1.87
2018-05-01T15:04:01.022Z,1.43
2018-05-01T15:06:04.393Z,1.70
2018-05-01T15:08:06.977Z,1.80
2018-05-01T15:10:09.592Z,5.47
2018-05-01T15:12:12.222Z,1.60
2018-05-01T15:14:15.759Z,2.77
2018-05-01T15:16:19.991Z,1.30
2018-05-01T15:18:22.599Z,1.10
2018-05-01T15:20:25.200Z,1.43
2018-05-01T15:22:28.612Z,1.13
2018-05-01T15:24:31.215Z,1.90
2018-05-01T15:26:33.830Z,1.40
2018-05-01T15:28:36.411Z,1.27
2018-05-01T15:30:39.790Z,1.30
2018-05-01T15:32:42.393Z,1.13
2018-05-01T15:34:45.746Z,1.20
2018-05-01T15:36:48.409Z,1.10
2018-05-01T15:38:51.015Z,1.30
2018-05-01T15:40:54.524Z,1.20
2018-05-01T15:42:57.929Z,2.33
2018-05-01T15:45:00.523Z,1.30
2018-05-01T15:47:03.146Z,1.57
2018-05-01T15:49:05.736Z,1.40
2018-05-01T15:51:09.119Z,1.30
2018-05-01T15:53:12.517Z,1.20
2018-05-01T15:55:15.923Z,1.40
2018-05-01T15:57:19.311Z,1.10
2018-05-01T15:59:22.680Z,1.20
2018-05-01T16:01:25.299Z,1.40
2018-05-01T16:03:28.021Z,1.20
2018-05-01T16:05:30.612Z,1.20
2018-05-01T16:07:33.220Z,1.50
2018-05-01T16:09:35.816Z,1.40
2018-05-01T16:11:38.431Z,1.60
2018-05-01T16:13:41.011Z,1.30
2018-05-01T16:15:43.592Z,1.60
2018-05-01T16:17:46.956Z,1.43
2018-05-01T16:19:49.556Z,1.20
2018-05-01T16:21:52.918Z,1.40
2018-05-01T16:23:55.602Z,1.10
2018-05-01T16:25:59.016Z,1.30
2018-05-01T16:28:02.385Z,1.20
2018-05-01T16:30:04.976Z,1.40
2018-05-01T16:32:07.611Z,1.30
2018-05-01T16:34:10.340Z,1.00
2018-05-01T16:36:13.694Z,1.30
2018-05-01T16:38:17.081Z,0.90
2018-05-01T16:40:19.690Z,1.20
2018-05-01T16:42:23.101Z,1.20
2018-05-01T16:44:26.460Z,1.10
2018-05-01T16:46:29.076Z,1.30
2018-05-01T16:48:31.742Z,1.07
2018-05-01T16:50:35.116Z,1.20
2018-05-01T16:52:37.743Z,0.90
2018-05-01T16:54:40.392Z,1.00
2018-05-01T16:56:42.997Z,1.10
2018-05-01T16:58:45.603Z,1.20
2018-05-01T17:00:48.202Z,1.00
2018-05-01T17:02:51.670Z,1.10
2018-05-01T17:04:54.266Z,0.93
2018-05-01T17:06:57.631Z,1.10
2018-05-01T17:09:00.285Z,1.10
2018-05-01T17:11:02.896Z,0.80
2018-05-01T17:13:05.526Z,0.87
2018-05-01T17:15:08.101Z,1.10
2018-05-01T17:17:10.680Z,1.00
2018-05-01T17:19:13.306Z,1.10
2018-05-01T17:21:16.700Z,1.10
2018-05-01T17:23:20.112Z,1.10
2018-05-01T17:25:22.728Z,1.13
2018-05-01T17:27:26.091Z,1.00
2018-05-01T17:29:28.712Z,1.20
2018-05-01T17:31:31.373Z,1.10
2018-05-01T17:33:34.023Z,1.23
2018-05-01T17:35:36.659Z,1.40
2018-05-01T17:37:40.053Z,1.20
2018-05-01T17:39:42.691Z,1.70
2018-05-01T17:41:45.295Z,2.50
2018-05-01T17:43:47.912Z,3.40
2018-05-01T17:45:50.539Z,3.20
2018-05-01T17:47:53.202Z,2.63
2018-05-01T17:49:55.835Z,4.10
2018-05-01T17:51:58.461Z,2.97
2018-05-01T17:54:01.091Z,3.53
2018-05-01T17:56:03.672Z,6.20
2018-05-01T17:58:06.296Z,5.30
2018-05-01T18:00:09.672Z,4.13
2018-05-01T18:02:12.255Z,2.27
2018-05-01T18:04:14.891Z,1.50
2018-05-01T18:06:18.288Z,1.63
2018-05-01T18:08:20.909Z,1.63
2018-05-01T18:10:24.258Z,1.10
2018-05-01T18:12:27.712Z,1.13
2018-05-01T18:14:30.356Z,1.10
2018-05-01T18:16:33.403Z,1.20
2018-05-01T18:18:36.080Z,1.20
2018-05-01T18:20:43.493Z,1.20
2018-05-01T18:22:46.082Z,1.00
2018-05-01T18:24:48.705Z,1.27
2018-05-01T18:26:51.296Z,1.20
2018-05-01T18:28:53.919Z,1.50
2018-05-01T18:30:57.259Z,1.40
2018-05-01T18:32:59.897Z,1.10
2018-05-01T18:35:03.271Z,1.30
2018-05-01T18:37:06.635Z,1.40
2018-05-01T18:39:09.283Z,1.23
2018-05-01T18:41:11.897Z,1.50
2018-05-01T18:43:14.504Z,1.40
2018-05-01T18:45:17.896Z,1.37
2018-05-01T18:47:21.313Z,1.47
2018-05-01T18:49:24.052Z,1.60
2018-05-01T18:51:27.403Z,1.30
2018-05-01T18:53:29.981Z,1.50
2018-05-01T18:55:32.618Z,1.63
2018-05-01T18:57:35.203Z,1.60
2018-05-01T18:59:37.860Z,1.57
2018-05-01T19:01:41.200Z,1.30
2018-05-01T19:03:43.804Z,1.50
2018-05-01T19:05:46.431Z,1.40
2018-05-01T19:07:49.253Z,1.30
2018-05-01T19:09:51.905Z,1.40
2018-05-01T19:11:54.626Z,1.50
2018-05-01T19:13:57.140Z,1.70
2018-05-01T19:15:59.859Z,1.50
2018-05-01T19:18:02.441Z,1.33
2018-05-01T19:20:05.837Z,1.30
2018-05-01T19:22:09.212Z,1.40
2018-05-01T19:24:11.809Z,1.20
2018-05-01T19:26:15.173Z,1.27
2018-05-01T19:28:17.768Z,1.20
2018-05-01T19:30:21.144Z,1.50
2018-05-01T19:32:23.748Z,2.10
2018-05-01T19:34:26.471Z,1.20
2018-05-01T19:36:28.976Z,1.50
2018-05-01T19:38:31.583Z,1.50
2018-05-01T19:40:34.215Z,1.50
2018-05-01T19:42:36.810Z,1.40
2018-05-01T19:44:40.205Z,1.13
2018-05-01T19:46:43.588Z,1.43
2018-05-01T19:48:47.003Z,1.40
2018-05-01T19:50:49.675Z,1.33
2018-05-01T19:52:52.242Z,1.67
2018-05-01T19:54:55.659Z,1.80
2018-05-01T19:56:58.252Z,1.50
2018-05-01T19:59:00.841Z,1.90
2018-05-01T20:01:03.478Z,1.40
2018-05-01T20:03:06.202Z,1.63
2018-05-01T20:05:08.759Z,1.80
2018-05-01T20:07:11.363Z,2.00
2018-05-01T20:09:14.038Z,2.17
2018-05-01T20:11:16.727Z,2.00
2018-05-01T20:13:20.119Z,1.70
2018-05-01T20:15:23.500Z,2.97
2018-05-01T20:17:26.085Z,1.90
2018-05-01T20:19:29.455Z,1.93
2018-05-01T20:21:32.142Z,2.10
2018-05-01T20:23:34.810Z,2.10
2018-05-01T20:25:37.420Z,2.07
2018-05-01T20:27:40.017Z,2.20
2018-05-01T20:29:42.600Z,2.20
2018-05-01T20:31:45.228Z,2.37
2018-05-01T20:33:48.840Z,2.83
2018-05-01T20:35:52.212Z,3.87
2018-05-01T20:37:54.896Z,3.37
2018-05-01T20:39:58.260Z,3.20
2018-05-01T20:42:01.129Z,3.43
2018-05-01T20:44:04.515Z,3.07
2018-05-01T20:46:07.133Z,3.00
2018-05-01T20:48:10.531Z,3.33
2018-05-01T20:50:13.902Z,3.97
2018-05-01T20:52:16.560Z,4.23
2018-05-01T20:54:19.164Z,5.73
2018-05-01T20:56:21.805Z,6.27
2018-05-01T20:58:24.406Z,5.20
2018-05-01T21:00:27.052Z,4.37
2018-05-01T21:02:29.654Z,2.70
2018-05-01T21:04:32.253Z,3.17
2018-05-01T21:06:34.864Z,2.93
2018-05-01T21:08:37.447Z,3.23
2018-05-01T21:10:40.056Z,3.13
2018-05-01T21:12:42.799Z,2.83
2018-05-01T21:14:46.211Z,2.57
2018-05-01T21:16:48.839Z,3.23
2018-05-01T21:18:51.436Z,2.80
2018-05-01T21:20:54.064Z,2.70
2018-05-01T21:22:57.442Z,2.70
2018-05-01T21:25:00.029Z,2.37
2018-05-01T21:27:03.516Z,2.70
2018-05-01T21:29:06.874Z,2.17
2018-05-01T21:31:09.524Z,2.20
2018-05-01T21:33:12.126Z,2.10
2018-05-01T21:35:14.707Z,2.37
2018-05-01T21:37:17.340Z,2.20
2018-05-01T21:39:19.979Z,2.53
2018-05-01T21:41:23.440Z,2.40
2018-05-01T21:43:26.043Z,2.60
2018-05-01T21:45:28.685Z,2.70
2018-05-01T21:47:31.352Z,2.73
2018-05-01T21:49:33.991Z,2.60
2018-05-01T21:51:37.387Z,2.77
2018-05-01T21:53:40.736Z,2.37
2018-05-01T21:55:43.349Z,2.50
2018-05-01T21:57:46.756Z,2.30
2018-05-01T21:59:49.383Z,2.30
2018-05-01T22:01:51.984Z,2.50
2018-05-01T22:03:55.464Z,2.10
2018-05-01T22:05:58.042Z,2.70
2018-05-01T22:08:00.659Z,2.90
2018-05-01T22:10:03.358Z,2.50
2018-05-01T22:12:05.908Z,2.60
2018-05-01T22:14:08.492Z,2.60
2018-05-01T22:16:11.082Z,2.30
2018-05-01T22:18:13.748Z,2.23
2018-05-01T22:20:16.363Z,2.70
2018-05-01T22:22:18.970Z,2.70
2018-05-01T22:24:21.560Z,2.50
2018-05-01T22:26:24.152Z,2.40
2018-05-01T22:28:26.771Z,2.30
2018-05-01T22:30:30.159Z,2.47
2018-05-01T22:32:32.809Z,2.47
2018-05-01T22:34:35.391Z,2.40
2018-05-01T22:36:37.967Z,2.20
2018-05-01T22:38:40.602Z,2.40
2018-05-01T22:40:43.229Z,2.33
2018-05-01T22:42:45.839Z,2.23
2018-05-01T22:44:48.433Z,2.53
2018-05-01T22:46:51.037Z,2.50
2018-05-01T22:48:53.628Z,2.20
2018-05-01T22:50:56.992Z,2.30
2018-05-01T22:52:59.613Z,2.20
2018-05-01T22:55:02.963Z,2.30
2018-05-01T22:57:05.557Z,2.57
2018-05-01T22:59:08.172Z,2.70
2018-05-01T23:01:10.758Z,2.80
2018-05-01T23:03:13.356Z,2.27
2018-05-01T23:05:15.940Z,2.70
2018-05-01T23:07:18.528Z,2.53
2018-05-01T23:09:21.192Z,2.70
2018-05-01T23:11:23.765Z,2.80
2018-05-01T23:13:26.381Z,2.60
2018-05-01T23:15:28.969Z,2.63
2018-05-01T23:17:33.020Z,2.50
2018-05-01T23:19:35.640Z,2.60
2018-05-01T23:21:38.232Z,2.30
2018-05-01T23:23:40.832Z,2.80
2018-05-01T23:25:44.246Z,2.80
2018-05-01T23:27:46.851Z,2.80
2018-05-01T23:29:49.456Z,2.77
2018-05-01T23:31:52.036Z,2.87
2018-05-01T23:33:54.731Z,2.67
2018-05-01T23:35:57.312Z,3.03
2018-05-01T23:37:59.943Z,3.10
2018-05-01T23:40:02.523Z,3.10
2018-05-01T23:42:05.105Z,2.83
2018-05-01T23:44:07.732Z,2.73
2018-05-01T23:46:11.128Z,2.60
2018-05-01T23:48:14.500Z,2.30
2018-05-01T23:50:17.076Z,2.40
2018-05-01T23:52:19.696Z,2.60
2018-05-01T23:54:22.327Z,2.13
2018-05-01T23:56:24.903Z,2.30
2018-05-01T23:58:27.536Z,2.60
